Time;durP1;ratioP1;P1;durP2;ratioP2;P2;SDS_P1;SDS_P2;PMS_P1;PMS_P2;Temp;Humidity;BMP_temperature;BMP_pressure;BME280_temperature;BME280_humidity;BME280_pressure;Samples;Min_cycle;Max_cycle;Signal;HPM_P1;HPM_P2
2021/05/15 00:04:12;;;;;;;0.67;0.67;;;15.70;31.70;;;;;;10451335;28;20220;-70
2021/05/15 00:09:13;;;;;;;0.70;0.60;;;15.60;31.60;;;;;;10460188;28;20224;-70
2021/05/15 00:14:16;;;;;;;0.70;0.70;;;15.60;31.90;;;;;;10450617;28;20231;-70
2021/05/15 00:19:17;;;;;;;0.63;0.63;;;15.60;32.30;;;;;;10455775;28;20227;-69
2021/05/15 00:24:19;;;;;;;0.80;0.70;;;15.60;32.00;;;;;;10455530;28;20229;-69
2021/05/15 00:29:21;;;;;;;1.90;0.77;;;15.50;32.00;;;;;;10454742;28;20229;-70
2021/05/15 00:34:23;;;;;;;0.90;0.90;;;15.50;32.00;;;;;;10463620;28;20614;-69
2021/05/15 00:39:24;;;;;;;0.90;0.87;;;15.50;32.20;;;;;;10448591;28;20711;-69
2021/05/15 00:44:42;;;;;;;0.90;0.90;;;15.40;32.40;;;;;;10450970;28;20233;-70
2021/05/15 00:49:44;;;;;;;0.93;0.80;;;15.30;32.40;;;;;;10450490;28;20227;-70
2021/05/15 00:54:47;;;;;;;0.70;0.70;;;15.30;32.40;;;;;;10453427;28;20236;-69
2021/05/15 00:59:49;;;;;;;1.00;0.70;;;15.20;32.30;;;;;;10441993;28;20571;-69
2021/05/15 01:04:51;;;;;;;0.80;0.80;;;15.20;32.30;;;;;;10460481;28;20224;-69
2021/05/15 01:09:53;;;;;;;1.10;0.80;;;15.10;32.20;;;;;;10450299;28;20224;-69
2021/05/15 01:14:55;;;;;;;0.80;0.80;;;15.10;32.20;;;;;;10446852;28;20232;-69
2021/05/15 01:19:57;;;;;;;0.87;0.87;;;15.00;32.40;;;;;;10457284;28;20907;-69
2021/05/15 01:24:59;;;;;;;1.10;1.00;;;15.10;32.20;;;;;;10453355;28;20237;-70
2021/05/15 01:30:00;;;;;;;1.00;0.83;;;15.10;32.50;;;;;;10448983;28;20752;-70
2021/05/15 01:35:02;;;;;;;0.80;0.80;;;15.10;32.20;;;;;;10456522;28;20228;-71
2021/05/15 01:40:07;;;;;;;1.03;0.70;;;15.10;32.20;;;;;;10460479;28;20228;-71
2021/05/15 01:45:09;;;;;;;0.70;0.70;;;15.00;32.80;;;;;;10455194;28;20228;-70
2021/05/15 01:50:14;;;;;;;0.83;0.80;;;14.90;32.60;;;;;;10447789;28;20595;-70
2021/05/15 01:55:21;;;;;;;0.60;0.60;;;14.80;32.90;;;;;;10457892;28;20225;-70
2021/05/15 02:00:23;;;;;;;0.80;0.80;;;14.70;33.70;;;;;;10449273;28;20580;-70
2021/05/15 02:05:25;;;;;;;0.70;0.70;;;14.70;33.20;;;;;;10447416;28;20235;-70
2021/05/15 02:10:27;;;;;;;0.97;0.80;;;14.60;33.20;;;;;;10448843;28;20237;-70
2021/05/15 02:15:29;;;;;;;0.80;0.77;;;14.60;34.30;;;;;;10452257;28;20282;-69
2021/05/15 02:20:31;;;;;;;0.80;0.80;;;14.60;33.30;;;;;;10451155;28;20624;-71
2021/05/15 02:25:34;;;;;;;0.70;0.70;;;14.60;33.50;;;;;;10451270;28;20221;-71
2021/05/15 02:30:36;;;;;;;2.20;0.80;;;14.60;33.90;;;;;;10447180;28;20228;-70
2021/05/15 02:35:38;;;;;;;0.97;0.87;;;14.60;33.90;;;;;;10451169;28;20289;-70
2021/05/15 02:40:42;;;;;;;0.77;0.77;;;14.50;34.30;;;;;;10451323;28;20228;-70
2021/05/15 02:45:44;;;;;;;1.20;1.00;;;14.50;34.70;;;;;;10446340;28;20319;-70
2021/05/15 02:50:46;;;;;;;1.03;1.00;;;14.50;34.70;;;;;;10454716;28;20225;-70
2021/05/15 02:55:49;;;;;;;1.10;1.00;;;14.50;34.90;;;;;;10441994;28;20233;-70
2021/05/15 03:00:50;;;;;;;1.17;1.00;;;14.50;35.10;;;;;;10445964;28;20224;-70
2021/05/15 03:05:52;;;;;;;0.90;0.90;;;14.50;35.00;;;;;;10451553;28;20226;-70
2021/05/15 03:10:54;;;;;;;1.03;0.90;;;14.50;35.20;;;;;;10444449;28;20228;-70
2021/05/15 03:15:56;;;;;;;1.27;1.00;;;14.50;35.70;;;;;;10452614;28;20236;-70
2021/05/15 03:20:57;;;;;;;1.43;0.90;;;14.50;35.20;;;;;;10451184;28;20231;-71
2021/05/15 03:26:00;;;;;;;1.00;0.90;;;14.50;35.20;;;;;;10457864;28;20240;-71
2021/05/15 03:31:02;;;;;;;1.07;0.90;;;14.40;35.70;;;;;;10450889;28;20224;-70
2021/05/15 03:36:05;;;;;;;0.83;0.83;;;14.40;35.60;;;;;;10458026;28;20236;-71
2021/05/15 03:41:07;;;;;;;1.00;0.90;;;14.40;35.70;;;;;;10459416;28;20944;-70
2021/05/15 03:46:08;;;;;;;1.83;0.90;;;14.30;36.20;;;;;;10448456;28;20240;-70
2021/05/15 03:51:10;;;;;;;1.90;0.90;;;14.20;35.90;;;;;;10450179;28;20241;-71
2021/05/15 03:56:12;;;;;;;0.80;0.80;;;14.20;36.00;;;;;;10457467;28;20228;-71
2021/05/15 04:01:14;;;;;;;0.80;0.80;;;14.10;36.40;;;;;;10456584;28;20228;-70
2021/05/15 04:06:16;;;;;;;1.00;0.90;;;14.10;36.30;;;;;;10466214;28;20220;-69
2021/05/15 04:11:18;;;;;;;1.10;0.80;;;14.00;36.40;;;;;;10450462;28;20232;-69
2021/05/15 04:16:25;;;;;;;1.27;1.10;;;14.00;37.00;;;;;;10460304;28;20232;-70
2021/05/15 04:21:27;;;;;;;0.87;0.87;;;14.00;36.70;;;;;;10453245;28;20245;-70
2021/05/15 04:26:29;;;;;;;2.57;1.10;;;14.00;36.80;;;;;;10453019;28;20217;-70
2021/05/15 04:31:30;;;;;;;1.10;0.93;;;13.90;37.30;;;;;;10452849;28;20712;-70
2021/05/15 04:36:32;;;;;;;0.97;0.80;;;13.90;37.00;;;;;;10453129;28;20593;-70
2021/05/15 04:41:35;;;;;;;0.77;0.77;;;13.90;37.20;;;;;;10452850;28;20914;-70
2021/05/15 04:46:36;;;;;;;0.70;0.70;;;13.90;37.80;;;;;;10452579;28;20275;-70
2021/05/15 04:51:38;;;;;;;1.37;0.90;;;14.00;37.40;;;;;;10452164;28;20618;-70
2021/05/15 04:56:40;;;;;;;0.80;0.80;;;14.00;37.50;;;;;;10448667;28;20226;-71
2021/05/15 05:01:42;;;;;;;1.80;0.90;;;14.00;38.00;;;;;;10451607;28;20229;-70
2021/05/15 05:06:43;;;;;;;0.80;0.80;;;14.00;37.60;;;;;;10448438;28;20598;-71
2021/05/15 05:11:47;;;;;;;0.90;0.90;;;14.00;37.80;;;;;;10450367;28;20225;-70
2021/05/15 05:16:50;;;;;;;1.40;1.30;;;14.00;38.30;;;;;;10461518;28;20284;-70
2021/05/15 05:21:53;;;;;;;1.17;1.17;;;14.00;37.90;;;;;;10455669;28;20233;-70
2021/05/15 05:26:56;;;;;;;0.90;0.90;;;14.10;38.40;;;;;;10445960;28;20225;-71
2021/05/15 05:31:57;;;;;;;1.03;0.90;;;14.10;38.40;;;;;;10456658;28;20229;-72
2021/05/15 05:36:59;;;;;;;1.30;1.13;;;14.10;38.00;;;;;;10442102;28;20244;-70
2021/05/15 05:42:01;;;;;;;1.87;1.77;;;14.10;38.20;;;;;;10450377;28;20225;-70
2021/05/15 05:47:03;;;;;;;1.40;1.30;;;14.20;38.70;;;;;;10436896;28;20723;-70
2021/05/15 05:52:05;;;;;;;1.50;1.40;;;14.20;38.50;;;;;;10452903;28;20228;-70
2021/05/15 05:57:07;;;;;;;1.70;1.60;;;14.20;38.60;;;;;;10429424;28;20236;-71
2021/05/15 06:02:09;;;;;;;3.17;1.20;;;14.30;38.90;;;;;;10453922;28;20240;-70
2021/05/15 06:07:12;;;;;;;2.67;1.70;;;14.30;38.20;;;;;;10445889;28;20652;-71
2021/05/15 06:12:15;;;;;;;1.87;1.40;;;14.30;38.30;;;;;;10455173;28;20594;-70
2021/05/15 06:17:17;;;;;;;1.40;1.30;;;14.40;38.70;;;;;;10454936;28;20224;-70
2021/05/15 06:22:18;;;;;;;1.37;1.27;;;14.30;38.20;;;;;;10443082;28;20229;-70
2021/05/15 06:27:21;;;;;;;1.43;1.33;;;14.30;38.50;;;;;;10455637;28;20833;-70
2021/05/15 06:32:22;;;;;;;1.70;1.60;;;14.30;38.80;;;;;;10430387;28;20232;-70
2021/05/15 06:37:24;;;;;;;1.63;1.53;;;14.30;38.90;;;;;;10455777;28;20231;-69
2021/05/15 06:42:26;;;;;;;1.60;1.43;;;14.30;38.90;;;;;;10448751;28;20568;-70
2021/05/15 06:47:28;;;;;;;1.30;1.20;;;14.40;39.40;;;;;;10456684;28;20687;-70
2021/05/15 06:52:29;;;;;;;1.30;1.20;;;14.40;39.00;;;;;;10444991;28;20230;-71
2021/05/15 06:57:32;;;;;;;1.00;1.00;;;14.50;39.40;;;;;;10444843;28;20228;-70
2021/05/15 07:02:33;;;;;;;1.10;1.10;;;14.70;38.90;;;;;;10448390;28;20718;-71
2021/05/15 07:07:35;;;;;;;1.50;1.40;;;14.80;38.50;;;;;;10449194;28;20228;-71
2021/05/15 07:12:37;;;;;;;1.70;1.60;;;14.90;38.60;;;;;;10441388;28;20312;-71
2021/05/15 07:17:39;;;;;;;1.37;1.23;;;14.90;38.20;;;;;;10440860;28;20295;-70
2021/05/15 07:22:42;;;;;;;0.93;0.93;;;14.90;38.20;;;;;;10455372;28;20270;-70
2021/05/15 07:27:45;;;;;;;1.27;1.23;;;15.20;38.40;;;;;;10449193;28;20225;-70
2021/05/15 07:32:48;;;;;;;56.77;9.03;;;15.30;38.60;;;;;;10443780;28;20229;-70
2021/05/15 07:37:50;;;;;;;2.03;1.27;;;15.40;38.50;;;;;;10453883;28;20308;-71
2021/05/15 07:42:52;;;;;;;1.77;1.10;;;15.50;37.90;;;;;;10454390;28;20229;-72
2021/05/15 07:47:53;;;;;;;2.53;1.00;;;15.60;37.90;;;;;;10447881;28;20291;-71
2021/05/15 07:52:55;;;;;;;1.07;0.90;;;15.70;37.40;;;;;;10428495;28;20225;-71
2021/05/15 07:57:57;;;;;;;1.53;1.10;;;15.70;37.90;;;;;;10454260;28;20331;-70
2021/05/15 08:02:59;;;;;;;1.53;0.97;;;15.80;37.50;;;;;;10453651;28;20290;-71
2021/05/15 08:08:02;;;;;;;1.00;0.90;;;15.90;37.60;;;;;;10454030;28;20232;-71
2021/05/15 08:13:05;;;;;;;0.97;0.83;;;16.00;38.10;;;;;;10424934;28;20283;-71
2021/05/15 08:18:06;;;;;;;0.70;0.70;;;16.00;37.20;;;;;;10412147;28;20636;-72
2021/05/15 08:23:08;;;;;;;1.30;1.20;;;16.10;37.10;;;;;;10412025;28;20745;-71
2021/05/15 08:28:13;;;;;;;2.00;1.80;;;16.10;37.10;;;;;;10445228;28;20231;-71
2021/05/15 08:33:15;;;;;;;1.20;1.10;;;16.10;36.90;;;;;;10451536;28;20233;-70
2021/05/15 08:38:16;;;;;;;1.00;1.00;;;16.20;36.70;;;;;;10452501;28;20228;-71
2021/05/15 08:43:20;;;;;;;0.90;0.90;;;16.20;36.70;;;;;;10452789;28;20237;-70
2021/05/15 08:48:22;;;;;;;0.90;0.60;;;16.30;36.30;;;;;;10452445;28;20237;-71
2021/05/15 08:53:24;;;;;;;0.80;0.80;;;16.30;36.70;;;;;;10452207;28;20229;-71
2021/05/15 08:58:26;;;;;;;1.37;0.70;;;16.40;36.70;;;;;;10452057;28;20236;-71
2021/05/15 09:03:28;;;;;;;0.83;0.83;;;16.50;36.60;;;;;;10451672;28;20232;-71
2021/05/15 09:08:31;;;;;;;1.10;0.80;;;16.70;36.20;;;;;;10451622;28;20296;-70
2021/05/15 09:13:34;;;;;;;2.00;0.90;;;16.70;36.30;;;;;;10451241;28;20304;-70
2021/05/15 09:18:40;;;;;;;0.73;0.67;;;16.80;35.90;;;;;;10450904;28;20228;-70
2021/05/15 09:23:45;;;;;;;1.43;0.80;;;16.90;35.40;;;;;;10450921;28;20312;-71
2021/05/15 09:28:51;;;;;;;0.97;0.80;;;16.80;35.30;;;;;;10451085;28;20632;-70
2021/05/15 09:33:55;;;;;;;1.20;0.90;;;16.90;34.60;;;;;;10450543;28;20311;-71
2021/05/15 09:39:08;;;;;;;0.70;0.70;;;17.00;34.80;;;;;;10450205;28;20328;-71
2021/05/15 09:44:13;;;;;;;0.60;0.60;;;17.00;33.90;;;;;;10449685;28;20229;-70
2021/05/15 09:49:21;;;;;;;0.60;0.60;;;17.10;34.40;;;;;;10484651;28;20228;-70
2021/05/15 09:54:25;;;;;;;0.57;0.57;;;17.30;34.10;;;;;;10490659;28;20256;-71
2021/05/15 09:59:31;;;;;;;0.97;0.60;;;17.50;34.30;;;;;;10490674;28;20675;-70
2021/05/15 10:04:34;;;;;;;0.50;0.50;;;17.60;34.30;;;;;;10490402;28;20277;-71
2021/05/15 10:09:37;;;;;;;0.60;0.60;;;17.70;33.50;;;;;;10490757;28;20308;-70
2021/05/15 10:14:41;;;;;;;0.60;0.60;;;17.80;34.50;;;;;;10490152;28;20247;-71
2021/05/15 10:19:44;;;;;;;1.03;0.60;;;17.80;33.30;;;;;;10490362;28;20306;-71
2021/05/15 10:24:48;;;;;;;0.73;0.70;;;17.90;33.80;;;;;;10489919;28;20309;-70
2021/05/15 10:29:54;;;;;;;0.63;0.50;;;18.10;34.00;;;;;;10488858;28;20307;-71
2021/05/15 10:35:02;;;;;;;0.60;0.60;;;18.30;32.10;;;;;;10489550;28;20311;-71
2021/05/15 10:40:14;;;;;;;0.60;0.60;;;18.40;31.20;;;;;;10457988;28;20278;-71
2021/05/15 10:45:32;;;;;;;1.50;0.63;;;18.50;31.20;;;;;;10448308;28;20313;-71
2021/05/15 10:50:48;;;;;;;2.43;0.70;;;18.60;31.60;;;;;;10448380;28;20720;-71
2021/05/15 10:56:02;;;;;;;1.17;0.60;;;18.60;31.80;;;;;;10452088;28;20239;-71
2021/05/15 11:01:15;;;;;;;1.20;0.63;;;18.70;31.50;;;;;;10452609;23;20312;-70
2021/05/15 11:06:23;;;;;;;1.53;0.60;;;18.80;31.20;;;;;;10402652;28;20654;-70
2021/05/15 11:11:37;;;;;;;1.23;0.90;;;18.90;31.40;;;;;;10403457;28;20703;-70
2021/05/15 11:16:41;;;;;;;1.13;1.03;;;19.00;31.10;;;;;;10391423;28;20253;-69
2021/05/15 11:21:53;;;;;;;0.93;0.80;;;19.10;31.60;;;;;;10389691;28;20253;-71
2021/05/15 11:26:59;;;;;;;0.70;0.70;;;19.20;30.10;;;;;;10397357;28;20321;-71
2021/05/15 11:32:11;;;;;;;1.03;0.60;;;19.30;30.80;;;;;;10388042;28;20312;-70
2021/05/15 11:37:14;;;;;;;0.60;0.60;;;19.30;30.40;;;;;;10388122;28;20265;-71
2021/05/15 11:42:17;;;;;;;0.50;0.50;;;19.40;30.80;;;;;;10391213;28;20226;-70
2021/05/15 11:47:23;;;;;;;0.60;0.60;;;19.50;30.80;;;;;;10390443;28;20230;-71
2021/05/15 11:52:31;;;;;;;1.30;0.80;;;19.60;29.80;;;;;;10392589;28;20761;-71
2021/05/15 11:57:34;;;;;;;0.60;0.60;;;19.70;30.00;;;;;;10393038;28;20260;-71
2021/05/15 12:02:46;;;;;;;0.83;0.53;;;19.80;30.20;;;;;;10391536;28;20230;-71
2021/05/15 12:07:52;;;;;;;0.73;0.63;;;19.90;29.60;;;;;;10393791;28;20701;-70
2021/05/15 12:12:59;;;;;;;0.70;0.70;;;19.90;29.90;;;;;;10388193;28;20258;-71
2021/05/15 12:18:03;;;;;;;0.70;0.70;;;20.10;28.80;;;;;;10386090;28;20234;-71
2021/05/15 12:23:09;;;;;;;0.60;0.60;;;20.10;29.40;;;;;;10394117;28;20230;-71
2021/05/15 12:28:19;;;;;;;2.13;0.77;;;20.10;29.50;;;;;;10388228;28;20313;-71
2021/05/15 12:33:25;;;;;;;1.50;0.60;;;20.10;29.00;;;;;;10391357;28;20690;-72
2021/05/15 12:38:30;;;;;;;0.70;0.70;;;20.20;28.80;;;;;;10388897;28;20255;-70
2021/05/15 12:43:33;;;;;;;1.30;0.77;;;20.10;28.90;;;;;;10386479;28;20276;-71
2021/05/15 12:48:42;;;;;;;0.70;0.70;;;20.10;28.90;;;;;;10390375;28;20241;-70
2021/05/15 12:53:45;;;;;;;0.70;0.70;;;20.10;28.40;;;;;;10387750;28;20258;-70
2021/05/15 12:58:52;;;;;;;3.40;0.60;;;20.10;29.20;;;;;;10392006;28;20305;-70
2021/05/15 13:03:55;;;;;;;0.70;0.70;;;20.10;28.80;;;;;;10385443;28;20279;-70
2021/05/15 13:09:00;;;;;;;0.60;0.60;;;20.20;29.00;;;;;;10392605;28;20261;-71
2021/05/15 13:14:04;;;;;;;1.23;0.87;;;20.30;28.80;;;;;;10392090;28;20295;-70
2021/05/15 13:19:08;;;;;;;0.70;0.70;;;20.40;28.60;;;;;;10384914;28;20238;-70
2021/05/15 13:24:11;;;;;;;3.93;1.00;;;20.60;28.20;;;;;;10391303;28;20268;-71
2021/05/15 13:29:13;;;;;;;0.97;0.70;;;20.70;28.80;;;;;;10385784;28;20230;-71
2021/05/15 13:34:17;;;;;;;1.00;0.60;;;20.80;28.20;;;;;;10390818;28;20345;-71
2021/05/15 13:39:20;;;;;;;0.50;0.50;;;20.80;27.80;;;;;;10387373;28;20250;-70
2021/05/15 13:44:23;;;;;;;0.50;0.50;;;20.80;28.00;;;;;;10389633;28;20234;-70
2021/05/15 13:49:26;;;;;;;1.27;0.90;;;20.80;27.80;;;;;;10387783;28;20658;-70
2021/05/15 13:54:29;;;;;;;0.80;0.80;;;20.80;27.30;;;;;;10388424;28;20301;-70
2021/05/15 13:59:32;;;;;;;0.50;0.50;;;20.80;28.00;;;;;;10388098;28;20249;-69
2021/05/15 14:04:35;;;;;;;0.83;0.83;;;20.80;27.90;;;;;;10386859;28;20234;-70
2021/05/15 14:09:38;;;;;;;1.17;0.70;;;20.90;27.40;;;;;;10385900;28;20312;-70
2021/05/15 14:14:41;;;;;;;0.73;0.63;;;21.00;27.60;;;;;;10380425;28;20313;-70
2021/05/15 14:19:44;;;;;;;1.10;0.70;;;21.00;27.10;;;;;;10382247;28;20305;-70
2021/05/15 14:24:47;;;;;;;0.67;0.67;;;20.90;26.40;;;;;;10380537;28;20260;-71
2021/05/15 14:29:50;;;;;;;0.60;0.60;;;20.90;26.40;;;;;;10388162;28;20256;-71
2021/05/15 14:34:54;;;;;;;2.50;1.00;;;20.80;26.80;;;;;;10383871;28;20783;-70
2021/05/15 14:39:56;;;;;;;5.07;1.70;;;20.80;26.50;;;;;;10390404;28;20308;-70
2021/05/15 14:44:59;;;;;;;0.57;0.57;;;20.80;26.90;;;;;;10382760;28;20250;-70
2021/05/15 14:50:04;;;;;;;0.60;0.60;;;20.70;26.70;;;;;;10382043;28;20256;-70
2021/05/15 14:55:08;;;;;;;0.97;0.50;;;20.70;26.40;;;;;;10382904;28;20700;-70
2021/05/15 15:00:13;;;;;;;2.20;0.80;;;20.60;26.30;;;;;;10388844;28;20806;-71
2021/05/15 15:05:16;;;;;;;0.70;0.70;;;20.60;26.80;;;;;;10383942;28;20234;-70
2021/05/15 15:10:19;;;;;;;0.63;0.63;;;20.50;26.40;;;;;;10387574;28;20313;-70
2021/05/15 15:15:22;;;;;;;0.50;0.50;;;20.50;26.30;;;;;;10384635;28;20291;-70
2021/05/15 15:20:26;;;;;;;0.93;0.67;;;20.50;26.40;;;;;;10387098;28;20316;-70
2021/05/15 15:25:29;;;;;;;0.70;0.57;;;20.50;26.20;;;;;;10385875;28;20256;-70
2021/05/15 15:30:32;;;;;;;0.70;0.70;;;20.50;26.10;;;;;;10386861;28;20230;-70
2021/05/15 15:35:36;;;;;;;0.60;0.50;;;20.50;25.80;;;;;;10387372;28;20721;-70
2021/05/15 15:40:41;;;;;;;0.60;0.60;;;20.50;26.10;;;;;;10387412;28;20313;-70
2021/05/15 15:45:45;;;;;;;0.83;0.73;;;20.50;25.90;;;;;;10396109;28;20675;-70
2021/05/15 15:50:49;;;;;;;0.70;0.70;;;20.50;25.60;;;;;;10391772;28;20258;-70
2021/05/15 15:55:55;;;;;;;0.70;0.67;;;20.50;25.60;;;;;;10396727;28;20862;-70
2021/05/15 16:00:58;;;;;;;3.90;3.70;;;20.50;25.60;;;;;;10389949;28;20707;-71
2021/05/15 16:06:02;;;;;;;1.60;1.50;;;20.40;25.90;;;;;;10389418;28;20309;-71
2021/05/15 16:11:05;;;;;;;15.93;3.27;;;20.40;25.90;;;;;;10396508;28;20757;-70
2021/05/15 16:16:08;;;;;;;1.73;0.80;;;20.30;26.10;;;;;;10387239;28;20317;-69
2021/05/15 16:21:14;;;;;;;1.60;1.47;;;20.30;26.30;;;;;;10394504;28;20276;-69
2021/05/15 16:26:18;;;;;;;3.10;2.80;;;20.20;26.00;;;;;;10389351;28;20222;-69
2021/05/15 16:31:20;;;;;;;4.07;3.67;;;20.20;25.90;;;;;;10392674;28;20312;-69
2021/05/15 16:36:24;;;;;;;2.03;1.90;;;20.10;25.90;;;;;;10390178;28;20312;-69
2021/05/15 16:41:27;;;;;;;1.47;1.30;;;20.10;26.00;;;;;;10390908;28;20253;-69
2021/05/15 16:46:31;;;;;;;2.67;1.93;;;20.00;26.20;;;;;;10391414;28;20221;-68
2021/05/15 16:51:35;;;;;;;2.77;1.30;;;19.90;26.30;;;;;;10389887;28;20226;-69
2021/05/15 16:56:38;;;;;;;3.07;1.10;;;19.90;26.00;;;;;;10392596;28;20272;-69
2021/05/15 17:01:41;;;;;;;4.83;1.10;;;19.90;26.30;;;;;;10389567;28;20253;-69
2021/05/15 17:06:45;;;;;;;1.17;0.80;;;19.80;26.40;;;;;;10392973;28;20794;-69
2021/05/15 17:11:47;;;;;;;1.00;0.77;;;19.80;26.20;;;;;;10388519;28;20309;-70
2021/05/15 17:16:50;;;;;;;0.70;0.70;;;19.70;26.20;;;;;;10393354;28;20230;-69
2021/05/15 17:21:54;;;;;;;13.17;1.87;;;19.60;26.30;;;;;;10385694;28;20723;-69
2021/05/15 17:27:01;;;;;;;0.57;0.57;;;19.50;26.30;;;;;;10393077;28;20279;-69
2021/05/15 17:32:05;;;;;;;0.90;0.90;;;19.40;26.10;;;;;;10409918;28;20243;-69
2021/05/15 17:37:09;;;;;;;1.00;1.00;;;19.30;26.40;;;;;;10409417;28;20230;-69
2021/05/15 17:42:11;;;;;;;1.80;1.03;;;19.20;26.30;;;;;;10409308;28;20229;-69
2021/05/15 17:47:14;;;;;;;0.90;0.90;;;19.20;26.50;;;;;;10410226;28;20272;-68
2021/05/15 17:52:18;;;;;;;1.33;0.80;;;19.10;26.40;;;;;;10368341;28;20353;-69
2021/05/15 17:57:20;;;;;;;0.90;0.70;;;19.00;26.20;;;;;;10364635;28;20798;-69
2021/05/15 18:02:24;;;;;;;1.47;0.90;;;18.90;26.90;;;;;;10364244;28;20648;-68
2021/05/15 18:07:28;;;;;;;0.83;0.60;;;18.80;26.40;;;;;;10389500;28;20248;-69
2021/05/15 18:12:30;;;;;;;1.23;0.70;;;18.70;27.10;;;;;;10408133;28;20253;-69
2021/05/15 18:17:34;;;;;;;1.20;0.70;;;18.60;26.50;;;;;;10408104;28;20284;-69
2021/05/15 18:22:38;;;;;;;0.80;0.70;;;18.50;26.70;;;;;;10407382;28;20231;-69
2021/05/15 18:27:41;;;;;;;0.93;0.60;;;18.50;26.80;;;;;;10407687;28;20308;-69
2021/05/15 18:32:43;;;;;;;1.53;0.80;;;18.40;26.80;;;;;;10407523;28;20316;-69
2021/05/15 18:37:47;;;;;;;1.17;0.87;;;18.30;27.30;;;;;;10407559;28;20226;-69
2021/05/15 18:42:50;;;;;;;0.83;0.83;;;18.20;27.80;;;;;;10407413;28;20291;-70
2021/05/15 18:47:53;;;;;;;2.43;1.10;;;18.00;28.00;;;;;;10407293;28;20225;-70
2021/05/15 18:52:56;;;;;;;1.50;1.20;;;17.70;28.40;;;;;;10407326;28;20234;-70
2021/05/15 18:57:59;;;;;;;1.27;1.10;;;17.30;28.70;;;;;;10407116;28;20316;-69
2021/05/15 19:03:02;;;;;;;1.10;1.00;;;16.90;29.20;;;;;;10402714;28;20241;-69
2021/05/15 19:08:06;;;;;;;1.40;1.10;;;16.50;29.70;;;;;;10400807;28;20705;-69
2021/05/15 19:13:09;;;;;;;1.73;0.90;;;16.10;30.40;;;;;;10402794;28;20324;-69
2021/05/15 19:18:11;;;;;;;2.20;0.70;;;15.80;30.30;;;;;;10413661;28;20260;-69
2021/05/15 19:23:15;;;;;;;1.10;1.00;;;15.50;31.30;;;;;;10414845;28;20308;-70
2021/05/15 19:28:18;;;;;;;1.17;0.80;;;15.30;31.60;;;;;;10415283;28;20226;-70
2021/05/15 19:33:21;;;;;;;0.70;0.70;;;15.20;31.60;;;;;;10413893;28;20261;-70
2021/05/15 19:38:25;;;;;;;0.70;0.70;;;15.10;31.50;;;;;;10414230;28;20706;-70
2021/05/15 19:43:27;;;;;;;0.60;0.60;;;15.00;32.10;;;;;;10413914;28;20316;-70
2021/05/15 19:48:30;;;;;;;1.27;0.80;;;14.90;32.00;;;;;;10413367;28;20221;-69
2021/05/15 19:53:44;;;;;;;0.60;0.60;;;14.90;32.00;;;;;;10410182;28;20534;-70
2021/05/15 19:58:47;;;;;;;0.87;0.87;;;14.80;32.10;;;;;;10410257;28;20308;-70
2021/05/15 20:03:50;;;;;;;1.67;1.13;;;14.70;32.00;;;;;;10409580;28;20309;-70
2021/05/15 20:08:53;;;;;;;0.93;0.93;;;14.60;32.20;;;;;;10410217;28;20257;-69
2021/05/15 20:13:56;;;;;;;1.00;0.90;;;14.60;32.90;;;;;;10405771;28;20316;-70
2021/05/15 20:19:03;;;;;;;0.80;0.80;;;14.60;32.50;;;;;;10406318;28;20651;-69
2021/05/15 20:24:07;;;;;;;1.17;1.07;;;14.70;32.50;;;;;;10406542;28;20230;-70
2021/05/15 20:29:10;;;;;;;0.90;0.80;;;14.60;33.10;;;;;;10407614;28;20241;-70
2021/05/15 20:34:13;;;;;;;0.87;0.80;;;14.60;32.70;;;;;;10409036;28;20262;-69
2021/05/15 20:39:17;;;;;;;0.63;0.63;;;14.50;32.90;;;;;;10409005;28;20313;-69
2021/05/15 20:44:20;;;;;;;0.60;0.60;;;14.40;33.30;;;;;;10408833;28;20253;-69
2021/05/15 20:49:22;;;;;;;0.80;0.80;;;14.30;33.20;;;;;;10408762;28;20227;-70
2021/05/15 20:54:26;;;;;;;0.70;0.70;;;14.20;33.50;;;;;;10408741;28;20305;-70
2021/05/15 20:59:29;;;;;;;0.70;0.70;;;14.10;34.00;;;;;;10410582;28;20288;-70
2021/05/15 21:04:33;;;;;;;0.70;0.70;;;14.00;33.70;;;;;;10410622;28;20250;-70
2021/05/15 21:09:37;;;;;;;0.50;0.50;;;14.00;33.90;;;;;;10410459;28;20600;-69
2021/05/15 21:14:40;;;;;;;0.70;0.70;;;13.90;34.10;;;;;;10410430;28;20260;-69
2021/05/15 21:19:42;;;;;;;0.60;0.60;;;13.90;33.90;;;;;;10410446;28;20658;-69
2021/05/15 21:24:46;;;;;;;1.07;0.80;;;13.80;33.90;;;;;;10409762;28;20229;-69
2021/05/15 21:29:49;;;;;;;0.70;0.70;;;13.80;34.00;;;;;;10409842;28;20736;-69
2021/05/15 21:34:51;;;;;;;1.10;0.60;;;13.80;33.70;;;;;;10409534;28;20269;-69
2021/05/15 21:39:55;;;;;;;0.60;0.60;;;13.80;34.00;;;;;;10408991;28;20705;-69
2021/05/15 21:44:58;;;;;;;0.73;0.73;;;13.90;34.20;;;;;;10409259;28;20245;-69
2021/05/15 21:50:01;;;;;;;0.67;0.67;;;13.90;33.70;;;;;;10409097;28;20229;-69
2021/05/15 21:55:07;;;;;;;0.67;0.60;;;14.00;33.70;;;;;;10407016;28;20257;-69
2021/05/15 22:00:39;;;;;;;0.70;0.70;;;13.90;34.30;;;;;;10406591;28;20272;-69
2021/05/15 22:05:43;;;;;;;0.60;0.60;;;13.90;34.80;;;;;;10407284;28;20256;-69
2021/05/15 22:10:50;;;;;;;0.57;0.57;;;13.90;34.00;;;;;;10408230;28;20764;-69
2021/05/15 22:15:52;;;;;;;0.50;0.50;;;13.80;34.00;;;;;;10408128;28;20284;-69
2021/05/15 22:20:57;;;;;;;0.50;0.50;;;13.80;33.50;;;;;;10407881;28;20229;-69
2021/05/15 22:26:01;;;;;;;0.60;0.60;;;13.70;34.00;;;;;;10408038;28;20233;-68
2021/05/15 22:31:07;;;;;;;1.83;0.60;;;13.70;33.90;;;;;;10407476;28;20237;-69
2021/05/15 22:36:12;;;;;;;0.60;0.60;;;13.60;34.00;;;;;;10407832;28;20238;-69
2021/05/15 22:41:16;;;;;;;2.10;0.80;;;13.70;34.00;;;;;;10407626;28;20264;-69
2021/05/15 22:46:19;;;;;;;0.60;0.60;;;13.60;34.30;;;;;;10407692;28;20709;-69
2021/05/15 22:51:24;;;;;;;0.60;0.60;;;13.70;33.80;;;;;;10410499;28;20312;-69
2021/05/15 22:56:29;;;;;;;0.50;0.50;;;13.70;34.10;;;;;;10415598;28;20652;-69
2021/05/15 23:01:38;;;;;;;0.83;0.60;;;13.60;34.30;;;;;;10415507;28;20234;-69
2021/05/15 23:06:41;;;;;;;0.70;0.70;;;13.60;33.90;;;;;;10415307;28;20309;-68
2021/05/15 23:11:44;;;;;;;0.60;0.60;;;13.60;33.90;;;;;;10415119;28;20320;-69
2021/05/15 23:16:47;;;;;;;0.60;0.60;;;13.70;34.20;;;;;;10414707;28;20308;-68
2021/05/15 23:21:50;;;;;;;0.50;0.50;;;13.60;34.00;;;;;;10414849;28;20317;-69
2021/05/15 23:26:54;;;;;;;0.60;0.60;;;13.70;33.90;;;;;;10414494;28;20709;-69
2021/05/15 23:31:57;;;;;;;0.60;0.60;;;13.60;34.10;;;;;;10414331;28;20313;-69
2021/05/15 23:37:03;;;;;;;0.57;0.57;;;13.60;34.60;;;;;;10414269;28;20284;-69
2021/05/15 23:42:06;;;;;;;0.57;0.57;;;13.50;33.90;;;;;;10414003;28;20253;-69
2021/05/15 23:47:09;;;;;;;0.50;0.50;;;13.50;34.20;;;;;;10413990;28;20226;-68
2021/05/15 23:52:14;;;;;;;0.50;0.50;;;13.50;33.90;;;;;;10413867;28;20234;-69
2021/05/15 23:57:18;;;;;;;0.63;0.60;;;13.40;33.90;;;;;;10413492;28;20404;-69
